sensor_id;sensor_type;location;lat;lon;timestamp;P1;durP1;ratioP1;P2;durP2;ratioP2
43744;SDS011;29359;53.048;8.732;2022-07-21T00:00:45;10.00;;;6.10;;
43744;SDS011;29359;53.048;8.732;2022-07-21T00:02:47;13.25;;;5.88;;
43744;SDS011;29359;53.048;8.732;2022-07-21T00:04:49;11.55;;;5.60;;
43744;SDS011;29359;53.048;8.732;2022-07-21T00:06:51;9.18;;;5.70;;
43744;SDS011;29359;53.048;8.732;2022-07-21T00:08:53;14.38;;;6.60;;
43744;SDS011;29359;53.048;8.732;2022-07-21T00:10:55;13.90;;;5.63;;
43744;SDS011;29359;53.048;8.732;2022-07-21T00:12:57;10.90;;;5.50;;
43744;SDS011;29359;53.048;8.732;2022-07-21T00:14:58;11.18;;;6.07;;
43744;SDS011;29359;53.048;8.732;2022-07-21T00:17:00;13.05;;;5.78;;
43744;SDS011;29359;53.048;8.732;2022-07-21T00:19:02;12.43;;;4.97;;
43744;SDS011;29359;53.048;8.732;2022-07-21T00:21:04;12.38;;;5.30;;
43744;SDS011;29359;53.048;8.732;2022-07-21T00:23:06;13.55;;;5.32;;
43744;SDS011;29359;53.048;8.732;2022-07-21T00:25:08;12.77;;;5.45;;
43744;SDS011;29359;53.048;8.732;2022-07-21T00:27:12;11.45;;;5.03;;
43744;SDS011;29359;53.048;8.732;2022-07-21T00:29:13;11.18;;;5.30;;
43744;SDS011;29359;53.048;8.732;2022-07-21T00:31:18;10.70;;;4.53;;
43744;SDS011;29359;53.048;8.732;2022-07-21T00:33:19;14.23;;;4.47;;
43744;SDS011;29359;53.048;8.732;2022-07-21T00:35:21;9.23;;;4.47;;
43744;SDS011;29359;53.048;8.732;2022-07-21T00:37:23;9.02;;;4.95;;
43744;SDS011;29359;53.048;8.732;2022-07-21T00:39:25;11.27;;;5.55;;
43744;SDS011;29359;53.048;8.732;2022-07-21T00:41:26;10.00;;;5.28;;
43744;SDS011;29359;53.048;8.732;2022-07-21T00:43:28;12.13;;;5.18;;
43744;SDS011;29359;53.048;8.732;2022-07-21T00:45:30;11.73;;;5.75;;
43744;SDS011;29359;53.048;8.732;2022-07-21T00:47:31;11.45;;;5.03;;
43744;SDS011;29359;53.048;8.732;2022-07-21T00:49:33;8.20;;;5.10;;
43744;SDS011;29359;53.048;8.732;2022-07-21T00:51:35;11.45;;;5.25;;
43744;SDS011;29359;53.048;8.732;2022-07-21T00:53:36;10.43;;;5.68;;
43744;SDS011;29359;53.048;8.732;2022-07-21T00:55:38;15.63;;;5.38;;
43744;SDS011;29359;53.048;8.732;2022-07-21T00:57:43;10.02;;;5.60;;
43744;SDS011;29359;53.048;8.732;2022-07-21T00:59:46;9.35;;;5.45;;
43744;SDS011;29359;53.048;8.732;2022-07-21T01:01:48;9.07;;;5.22;;
43744;SDS011;29359;53.048;8.732;2022-07-21T01:03:50;12.27;;;5.63;;
43744;SDS011;29359;53.048;8.732;2022-07-21T01:05:51;5.47;;;4.80;;
43744;SDS011;29359;53.048;8.732;2022-07-21T01:07:54;7.20;;;4.57;;
43744;SDS011;29359;53.048;8.732;2022-07-21T01:09:57;11.52;;;4.95;;
43744;SDS011;29359;53.048;8.732;2022-07-21T01:11:59;8.75;;;5.00;;
43744;SDS011;29359;53.048;8.732;2022-07-21T01:14:01;11.38;;;4.72;;
43744;SDS011;29359;53.048;8.732;2022-07-21T01:16:03;9.88;;;4.57;;
43744;SDS011;29359;53.048;8.732;2022-07-21T01:18:05;8.73;;;4.35;;
43744;SDS011;29359;53.048;8.732;2022-07-21T01:20:08;9.25;;;4.70;;
43744;SDS011;29359;53.048;8.732;2022-07-21T01:22:12;12.30;;;4.97;;
43744;SDS011;29359;53.048;8.732;2022-07-21T01:24:14;13.13;;;4.25;;
43744;SDS011;29359;53.048;8.732;2022-07-21T01:26:16;6.45;;;4.60;;
43744;SDS011;29359;53.048;8.732;2022-07-21T01:28:17;14.15;;;4.55;;
43744;SDS011;29359;53.048;8.732;2022-07-21T01:30:19;6.03;;;3.90;;
43744;SDS011;29359;53.048;8.732;2022-07-21T01:32:21;7.30;;;4.00;;
43744;SDS011;29359;53.048;8.732;2022-07-21T01:34:22;6.45;;;3.92;;
43744;SDS011;29359;53.048;8.732;2022-07-21T01:36:24;5.82;;;3.60;;
43744;SDS011;29359;53.048;8.732;2022-07-21T01:38:26;8.68;;;3.90;;
43744;SDS011;29359;53.048;8.732;2022-07-21T01:40:46;9.57;;;4.03;;
43744;SDS011;29359;53.048;8.732;2022-07-21T01:43:08;5.30;;;3.85;;
43744;SDS011;29359;53.048;8.732;2022-07-21T01:45:12;10.80;;;3.60;;
43744;SDS011;29359;53.048;8.732;2022-07-21T01:47:14;9.50;;;3.50;;
43744;SDS011;29359;53.048;8.732;2022-07-21T01:49:16;12.13;;;3.75;;
43744;SDS011;29359;53.048;8.732;2022-07-21T01:51:19;3.35;;;2.75;;
43744;SDS011;29359;53.048;8.732;2022-07-21T01:53:20;4.35;;;2.90;;
43744;SDS011;29359;53.048;8.732;2022-07-21T01:55:23;5.55;;;2.72;;
43744;SDS011;29359;53.048;8.732;2022-07-21T01:57:26;3.72;;;2.63;;
43744;SDS011;29359;53.048;8.732;2022-07-21T01:59:27;3.50;;;2.50;;
43744;SDS011;29359;53.048;8.732;2022-07-21T02:01:29;6.85;;;3.08;;
43744;SDS011;29359;53.048;8.732;2022-07-21T02:03:32;4.63;;;2.40;;
43744;SDS011;29359;53.048;8.732;2022-07-21T02:05:33;6.47;;;2.45;;
43744;SDS011;29359;53.048;8.732;2022-07-21T02:07:35;3.67;;;1.90;;
43744;SDS011;29359;53.048;8.732;2022-07-21T02:09:37;5.18;;;2.28;;
43744;SDS011;29359;53.048;8.732;2022-07-21T02:11:38;5.88;;;2.40;;
43744;SDS011;29359;53.048;8.732;2022-07-21T02:13:40;4.43;;;2.50;;
43744;SDS011;29359;53.048;8.732;2022-07-21T02:15:42;5.50;;;2.85;;
43744;SDS011;29359;53.048;8.732;2022-07-21T02:17:44;4.05;;;2.65;;
43744;SDS011;29359;53.048;8.732;2022-07-21T02:19:46;2.47;;;2.08;;
43744;SDS011;29359;53.048;8.732;2022-07-21T02:21:47;3.63;;;2.28;;
43744;SDS011;29359;53.048;8.732;2022-07-21T02:23:49;2.90;;;2.20;;
43744;SDS011;29359;53.048;8.732;2022-07-21T02:25:51;8.05;;;2.63;;
43744;SDS011;29359;53.048;8.732;2022-07-21T02:27:54;7.05;;;2.47;;
43744;SDS011;29359;53.048;8.732;2022-07-21T02:29:55;5.10;;;2.30;;
43744;SDS011;29359;53.048;8.732;2022-07-21T02:31:57;4.47;;;2.38;;
43744;SDS011;29359;53.048;8.732;2022-07-21T02:33:59;3.28;;;2.15;;
43744;SDS011;29359;53.048;8.732;2022-07-21T02:36:00;4.03;;;2.40;;
43744;SDS011;29359;53.048;8.732;2022-07-21T02:38:02;4.78;;;2.08;;
43744;SDS011;29359;53.048;8.732;2022-07-21T02:40:04;5.18;;;2.42;;
43744;SDS011;29359;53.048;8.732;2022-07-21T02:42:07;3.17;;;2.40;;
43744;SDS011;29359;53.048;8.732;2022-07-21T02:44:08;3.95;;;2.55;;
43744;SDS011;29359;53.048;8.732;2022-07-21T02:46:10;7.03;;;2.20;;
43744;SDS011;29359;53.048;8.732;2022-07-21T02:48:12;5.68;;;2.45;;
43744;SDS011;29359;53.048;8.732;2022-07-21T02:50:14;7.03;;;2.38;;
43744;SDS011;29359;53.048;8.732;2022-07-21T02:52:17;7.80;;;2.17;;
43744;SDS011;29359;53.048;8.732;2022-07-21T02:54:18;7.95;;;2.60;;
43744;SDS011;29359;53.048;8.732;2022-07-21T02:56:22;7.45;;;2.30;;
43744;SDS011;29359;53.048;8.732;2022-07-21T02:58:25;7.07;;;2.75;;
43744;SDS011;29359;53.048;8.732;2022-07-21T03:00:28;5.07;;;2.88;;
43744;SDS011;29359;53.048;8.732;2022-07-21T03:02:29;4.63;;;2.50;;
43744;SDS011;29359;53.048;8.732;2022-07-21T03:04:31;6.30;;;2.90;;
43744;SDS011;29359;53.048;8.732;2022-07-21T03:06:32;8.50;;;2.83;;
43744;SDS011;29359;53.048;8.732;2022-07-21T03:08:34;5.10;;;2.30;;
43744;SDS011;29359;53.048;8.732;2022-07-21T03:10:36;5.68;;;2.33;;
43744;SDS011;29359;53.048;8.732;2022-07-21T03:12:39;7.30;;;2.63;;
43744;SDS011;29359;53.048;8.732;2022-07-21T03:14:40;5.90;;;2.63;;
43744;SDS011;29359;53.048;8.732;2022-07-21T03:16:42;6.47;;;2.42;;
43744;SDS011;29359;53.048;8.732;2022-07-21T03:18:44;3.63;;;2.35;;
43744;SDS011;29359;53.048;8.732;2022-07-21T03:20:46;5.65;;;2.90;;
43744;SDS011;29359;53.048;8.732;2022-07-21T03:22:48;3.70;;;2.53;;
43744;SDS011;29359;53.048;8.732;2022-07-21T03:24:50;4.93;;;2.45;;
43744;SDS011;29359;53.048;8.732;2022-07-21T03:26:52;7.55;;;2.78;;
43744;SDS011;29359;53.048;8.732;2022-07-21T03:28:53;5.43;;;2.67;;
43744;SDS011;29359;53.048;8.732;2022-07-21T03:30:55;4.05;;;2.30;;
43744;SDS011;29359;53.048;8.732;2022-07-21T03:32:58;5.85;;;2.90;;
43744;SDS011;29359;53.048;8.732;2022-07-21T03:35:00;7.65;;;2.90;;
43744;SDS011;29359;53.048;8.732;2022-07-21T03:37:02;5.53;;;2.45;;
43744;SDS011;29359;53.048;8.732;2022-07-21T03:39:03;5.57;;;2.70;;
43744;SDS011;29359;53.048;8.732;2022-07-21T03:41:05;7.80;;;2.65;;
43744;SDS011;29359;53.048;8.732;2022-07-21T03:43:13;7.10;;;2.97;;
43744;SDS011;29359;53.048;8.732;2022-07-21T03:45:15;4.68;;;2.58;;
43744;SDS011;29359;53.048;8.732;2022-07-21T03:47:16;4.22;;;2.55;;
43744;SDS011;29359;53.048;8.732;2022-07-21T03:49:18;7.15;;;2.67;;
43744;SDS011;29359;53.048;8.732;2022-07-21T03:51:20;8.00;;;3.10;;
43744;SDS011;29359;53.048;8.732;2022-07-21T03:53:22;7.32;;;2.90;;
43744;SDS011;29359;53.048;8.732;2022-07-21T03:55:23;5.75;;;2.60;;
43744;SDS011;29359;53.048;8.732;2022-07-21T03:57:25;6.10;;;2.88;;
43744;SDS011;29359;53.048;8.732;2022-07-21T03:59:27;7.80;;;2.90;;
43744;SDS011;29359;53.048;8.732;2022-07-21T04:01:28;4.50;;;2.70;;
43744;SDS011;29359;53.048;8.732;2022-07-21T04:03:30;6.07;;;3.15;;
43744;SDS011;29359;53.048;8.732;2022-07-21T04:05:35;6.72;;;2.97;;
43744;SDS011;29359;53.048;8.732;2022-07-21T04:07:39;5.97;;;2.85;;
43744;SDS011;29359;53.048;8.732;2022-07-21T04:09:42;6.05;;;2.92;;
43744;SDS011;29359;53.048;8.732;2022-07-21T04:11:44;7.70;;;2.85;;
43744;SDS011;29359;53.048;8.732;2022-07-21T04:13:46;5.05;;;3.28;;
43744;SDS011;29359;53.048;8.732;2022-07-21T04:15:48;5.57;;;3.00;;
43744;SDS011;29359;53.048;8.732;2022-07-21T04:17:49;5.15;;;2.97;;
43744;SDS011;29359;53.048;8.732;2022-07-21T04:19:52;3.50;;;2.63;;
43744;SDS011;29359;53.048;8.732;2022-07-21T04:21:58;4.03;;;3.00;;
43744;SDS011;29359;53.048;8.732;2022-07-21T04:24:00;7.95;;;3.25;;
43744;SDS011;29359;53.048;8.732;2022-07-21T04:26:01;5.68;;;3.30;;
43744;SDS011;29359;53.048;8.732;2022-07-21T04:28:03;5.82;;;3.60;;
43744;SDS011;29359;53.048;8.732;2022-07-21T04:30:05;6.38;;;3.53;;
43744;SDS011;29359;53.048;8.732;2022-07-21T04:32:08;5.70;;;3.65;;
43744;SDS011;29359;53.048;8.732;2022-07-21T04:34:10;6.68;;;3.70;;
43744;SDS011;29359;53.048;8.732;2022-07-21T04:36:12;9.88;;;3.63;;
43744;SDS011;29359;53.048;8.732;2022-07-21T04:38:13;5.78;;;3.63;;
43744;SDS011;29359;53.048;8.732;2022-07-21T04:40:15;4.25;;;3.35;;
43744;SDS011;29359;53.048;8.732;2022-07-21T04:42:18;6.07;;;3.70;;
43744;SDS011;29359;53.048;8.732;2022-07-21T04:44:21;5.13;;;3.53;;
43744;SDS011;29359;53.048;8.732;2022-07-21T04:46:23;6.45;;;3.75;;
43744;SDS011;29359;53.048;8.732;2022-07-21T04:48:25;5.78;;;3.67;;
43744;SDS011;29359;53.048;8.732;2022-07-21T04:50:27;5.68;;;3.70;;
43744;SDS011;29359;53.048;8.732;2022-07-21T04:52:29;8.43;;;3.78;;
43744;SDS011;29359;53.048;8.732;2022-07-21T04:54:31;6.65;;;4.13;;
43744;SDS011;29359;53.048;8.732;2022-07-21T04:56:32;8.15;;;3.67;;
43744;SDS011;29359;53.048;8.732;2022-07-21T04:58:35;8.77;;;3.95;;
43744;SDS011;29359;53.048;8.732;2022-07-21T05:00:37;4.88;;;3.58;;
43744;SDS011;29359;53.048;8.732;2022-07-21T05:02:38;4.25;;;3.75;;
43744;SDS011;29359;53.048;8.732;2022-07-21T05:04:41;12.63;;;4.63;;
43744;SDS011;29359;53.048;8.732;2022-07-21T05:06:42;6.63;;;3.78;;
43744;SDS011;29359;53.048;8.732;2022-07-21T05:08:44;10.48;;;4.35;;
43744;SDS011;29359;53.048;8.732;2022-07-21T05:10:46;6.22;;;3.90;;
43744;SDS011;29359;53.048;8.732;2022-07-21T05:12:47;6.55;;;3.90;;
43744;SDS011;29359;53.048;8.732;2022-07-21T05:14:49;5.47;;;4.07;;
43744;SDS011;29359;53.048;8.732;2022-07-21T05:16:50;7.45;;;3.95;;
43744;SDS011;29359;53.048;8.732;2022-07-21T05:18:52;8.30;;;3.92;;
43744;SDS011;29359;53.048;8.732;2022-07-21T05:20:54;6.00;;;3.80;;
43744;SDS011;29359;53.048;8.732;2022-07-21T05:22:56;5.65;;;3.80;;
43744;SDS011;29359;53.048;8.732;2022-07-21T05:24:57;8.43;;;3.65;;
43744;SDS011;29359;53.048;8.732;2022-07-21T05:26:59;8.90;;;4.43;;
43744;SDS011;29359;53.048;8.732;2022-07-21T05:29:00;4.50;;;3.55;;
43744;SDS011;29359;53.048;8.732;2022-07-21T05:31:02;7.20;;;4.03;;
43744;SDS011;29359;53.048;8.732;2022-07-21T05:33:04;7.55;;;4.13;;
43744;SDS011;29359;53.048;8.732;2022-07-21T05:35:05;6.97;;;4.30;;
43744;SDS011;29359;53.048;8.732;2022-07-21T05:37:12;10.32;;;4.10;;
43744;SDS011;29359;53.048;8.732;2022-07-21T05:39:13;7.70;;;3.83;;
43744;SDS011;29359;53.048;8.732;2022-07-21T05:41:15;7.53;;;3.95;;
43744;SDS011;29359;53.048;8.732;2022-07-21T05:43:16;6.22;;;4.20;;
43744;SDS011;29359;53.048;8.732;2022-07-21T05:45:18;10.48;;;4.60;;
43744;SDS011;29359;53.048;8.732;2022-07-21T05:47:19;13.35;;;5.15;;
43744;SDS011;29359;53.048;8.732;2022-07-21T05:49:21;6.82;;;4.32;;
43744;SDS011;29359;53.048;8.732;2022-07-21T05:51:22;6.03;;;4.25;;
43744;SDS011;29359;53.048;8.732;2022-07-21T05:53:24;7.93;;;4.60;;
43744;SDS011;29359;53.048;8.732;2022-07-21T05:55:26;4.93;;;4.10;;
43744;SDS011;29359;53.048;8.732;2022-07-21T05:57:27;17.83;;;4.78;;
43744;SDS011;29359;53.048;8.732;2022-07-21T05:59:29;7.68;;;4.63;;
43744;SDS011;29359;53.048;8.732;2022-07-21T06:01:30;8.95;;;4.43;;
43744;SDS011;29359;53.048;8.732;2022-07-21T06:03:32;10.20;;;5.10;;
43744;SDS011;29359;53.048;8.732;2022-07-21T06:05:34;5.57;;;4.32;;
43744;SDS011;29359;53.048;8.732;2022-07-21T06:07:35;8.20;;;4.75;;
43744;SDS011;29359;53.048;8.732;2022-07-21T06:09:37;8.38;;;4.53;;
43744;SDS011;29359;53.048;8.732;2022-07-21T06:11:39;10.10;;;4.68;;
43744;SDS011;29359;53.048;8.732;2022-07-21T06:13:41;5.70;;;4.38;;
43744;SDS011;29359;53.048;8.732;2022-07-21T06:15:42;6.90;;;5.43;;
43744;SDS011;29359;53.048;8.732;2022-07-21T06:17:45;5.10;;;4.65;;
43744;SDS011;29359;53.048;8.732;2022-07-21T06:19:46;7.93;;;5.05;;
43744;SDS011;29359;53.048;8.732;2022-07-21T06:21:48;6.20;;;5.25;;
43744;SDS011;29359;53.048;8.732;2022-07-21T06:23:50;7.07;;;4.90;;
43744;SDS011;29359;53.048;8.732;2022-07-21T06:25:52;5.72;;;5.13;;
43744;SDS011;29359;53.048;8.732;2022-07-21T06:27:54;6.05;;;5.10;;
43744;SDS011;29359;53.048;8.732;2022-07-21T06:29:56;8.68;;;5.07;;
43744;SDS011;29359;53.048;8.732;2022-07-21T06:31:58;6.80;;;4.75;;
43744;SDS011;29359;53.048;8.732;2022-07-21T06:33:59;8.25;;;5.50;;
43744;SDS011;29359;53.048;8.732;2022-07-21T06:36:01;9.77;;;5.68;;
43744;SDS011;29359;53.048;8.732;2022-07-21T06:38:02;7.82;;;5.28;;
43744;SDS011;29359;53.048;8.732;2022-07-21T06:40:12;10.10;;;5.78;;
43744;SDS011;29359;53.048;8.732;2022-07-21T06:42:14;9.25;;;5.72;;
43744;SDS011;29359;53.048;8.732;2022-07-21T06:44:16;8.27;;;5.57;;
43744;SDS011;29359;53.048;8.732;2022-07-21T06:46:17;9.32;;;6.40;;
43744;SDS011;29359;53.048;8.732;2022-07-21T06:48:19;7.45;;;5.57;;
43744;SDS011;29359;53.048;8.732;2022-07-21T06:50:23;8.63;;;6.93;;
43744;SDS011;29359;53.048;8.732;2022-07-21T06:52:24;10.90;;;6.90;;
43744;SDS011;29359;53.048;8.732;2022-07-21T06:54:26;8.85;;;7.13;;
43744;SDS011;29359;53.048;8.732;2022-07-21T06:56:27;12.43;;;7.70;;
43744;SDS011;29359;53.048;8.732;2022-07-21T06:58:29;8.52;;;7.65;;
43744;SDS011;29359;53.048;8.732;2022-07-21T07:00:38;11.40;;;8.27;;
43744;SDS011;29359;53.048;8.732;2022-07-21T07:02:40;11.15;;;7.70;;
43744;SDS011;29359;53.048;8.732;2022-07-21T07:04:41;9.77;;;7.35;;
43744;SDS011;29359;53.048;8.732;2022-07-21T07:06:44;7.88;;;7.07;;
43744;SDS011;29359;53.048;8.732;2022-07-21T07:08:46;14.10;;;7.40;;
43744;SDS011;29359;53.048;8.732;2022-07-21T07:10:47;12.07;;;7.35;;
43744;SDS011;29359;53.048;8.732;2022-07-21T07:12:49;7.13;;;6.40;;
43744;SDS011;29359;53.048;8.732;2022-07-21T07:15:10;7.18;;;6.47;;
43744;SDS011;29359;53.048;8.732;2022-07-21T07:17:16;8.50;;;6.55;;
43744;SDS011;29359;53.048;8.732;2022-07-21T07:19:22;8.00;;;6.90;;
43744;SDS011;29359;53.048;8.732;2022-07-21T07:21:23;8.68;;;6.55;;
43744;SDS011;29359;53.048;8.732;2022-07-21T07:23:25;10.45;;;6.97;;
43744;SDS011;29359;53.048;8.732;2022-07-21T07:25:27;7.28;;;6.57;;
43744;SDS011;29359;53.048;8.732;2022-07-21T07:27:31;10.05;;;6.65;;
43744;SDS011;29359;53.048;8.732;2022-07-21T07:29:34;7.32;;;6.57;;
43744;SDS011;29359;53.048;8.732;2022-07-21T07:31:36;6.10;;;5.57;;
43744;SDS011;29359;53.048;8.732;2022-07-21T07:33:38;6.90;;;6.22;;
43744;SDS011;29359;53.048;8.732;2022-07-21T07:35:39;6.07;;;5.57;;
43744;SDS011;29359;53.048;8.732;2022-07-21T07:37:41;6.50;;;5.70;;
43744;SDS011;29359;53.048;8.732;2022-07-21T07:39:46;8.70;;;6.03;;
43744;SDS011;29359;53.048;8.732;2022-07-21T07:41:48;5.90;;;5.40;;
43744;SDS011;29359;53.048;8.732;2022-07-21T07:43:49;6.75;;;6.05;;
43744;SDS011;29359;53.048;8.732;2022-07-21T07:45:52;8.02;;;6.20;;
43744;SDS011;29359;53.048;8.732;2022-07-21T07:47:54;7.38;;;6.28;;
43744;SDS011;29359;53.048;8.732;2022-07-21T07:49:56;6.97;;;6.05;;
43744;SDS011;29359;53.048;8.732;2022-07-21T07:51:57;7.72;;;5.82;;
43744;SDS011;29359;53.048;8.732;2022-07-21T07:53:59;7.30;;;6.35;;
43744;SDS011;29359;53.048;8.732;2022-07-21T07:56:05;7.40;;;6.03;;
43744;SDS011;29359;53.048;8.732;2022-07-21T07:58:07;6.07;;;5.47;;
43744;SDS011;29359;53.048;8.732;2022-07-21T08:00:11;5.45;;;4.95;;
43744;SDS011;29359;53.048;8.732;2022-07-21T08:02:35;8.43;;;5.38;;
43744;SDS011;29359;53.048;8.732;2022-07-21T08:04:36;5.95;;;5.35;;
43744;SDS011;29359;53.048;8.732;2022-07-21T08:06:38;6.15;;;5.55;;
43744;SDS011;29359;53.048;8.732;2022-07-21T08:08:40;6.43;;;5.65;;
43744;SDS011;29359;53.048;8.732;2022-07-21T08:10:41;7.72;;;5.80;;
43744;SDS011;29359;53.048;8.732;2022-07-21T08:12:45;6.00;;;5.43;;
43744;SDS011;29359;53.048;8.732;2022-07-21T08:14:46;5.60;;;5.10;;
43744;SDS011;29359;53.048;8.732;2022-07-21T08:16:48;5.78;;;5.10;;
43744;SDS011;29359;53.048;8.732;2022-07-21T08:18:50;6.20;;;5.60;;
43744;SDS011;29359;53.048;8.732;2022-07-21T08:20:52;5.80;;;5.20;;
43744;SDS011;29359;53.048;8.732;2022-07-21T08:22:53;6.07;;;5.55;;
43744;SDS011;29359;53.048;8.732;2022-07-21T08:24:55;7.82;;;5.80;;
43744;SDS011;29359;53.048;8.732;2022-07-21T08:26:56;6.07;;;5.60;;
43744;SDS011;29359;53.048;8.732;2022-07-21T08:28:58;5.05;;;4.65;;
43744;SDS011;29359;53.048;8.732;2022-07-21T08:30:59;5.00;;;4.70;;
43744;SDS011;29359;53.048;8.732;2022-07-21T08:33:02;4.95;;;4.55;;
43744;SDS011;29359;53.048;8.732;2022-07-21T08:35:04;5.38;;;5.05;;
43744;SDS011;29359;53.048;8.732;2022-07-21T08:37:09;4.95;;;4.55;;
43744;SDS011;29359;53.048;8.732;2022-07-21T08:39:11;5.15;;;4.78;;
43744;SDS011;29359;53.048;8.732;2022-07-21T08:41:12;4.60;;;4.30;;
43744;SDS011;29359;53.048;8.732;2022-07-21T08:43:14;4.78;;;4.38;;
43744;SDS011;29359;53.048;8.732;2022-07-21T08:45:16;5.30;;;4.80;;
43744;SDS011;29359;53.048;8.732;2022-07-21T08:47:17;4.65;;;4.35;;
43744;SDS011;29359;53.048;8.732;2022-07-21T08:49:20;4.05;;;3.72;;
43744;SDS011;29359;53.048;8.732;2022-07-21T08:51:23;4.18;;;3.88;;
43744;SDS011;29359;53.048;8.732;2022-07-21T08:53:25;4.65;;;4.00;;
43744;SDS011;29359;53.048;8.732;2022-07-21T08:55:33;3.55;;;3.35;;
43744;SDS011;29359;53.048;8.732;2022-07-21T08:57:38;3.87;;;3.57;;
43744;SDS011;29359;53.048;8.732;2022-07-21T08:59:40;3.78;;;3.47;;
43744;SDS011;29359;53.048;8.732;2022-07-21T09:01:48;3.17;;;2.97;;
43744;SDS011;29359;53.048;8.732;2022-07-21T09:03:52;4.38;;;3.75;;
43744;SDS011;29359;53.048;8.732;2022-07-21T09:07:59;3.85;;;3.55;;
43744;SDS011;29359;53.048;8.732;2022-07-21T09:10:01;4.05;;;3.55;;
43744;SDS011;29359;53.048;8.732;2022-07-21T09:12:05;3.53;;;2.97;;
43744;SDS011;29359;53.048;8.732;2022-07-21T09:14:10;2.90;;;2.70;;
43744;SDS011;29359;53.048;8.732;2022-07-21T09:16:13;3.67;;;3.28;;
43744;SDS011;29359;53.048;8.732;2022-07-21T09:18:15;2.63;;;2.42;;
43744;SDS011;29359;53.048;8.732;2022-07-21T09:20:24;2.60;;;2.40;;
43744;SDS011;29359;53.048;8.732;2022-07-21T09:22:26;2.22;;;2.03;;
43744;SDS011;29359;53.048;8.732;2022-07-21T09:26:42;2.50;;;2.30;;
43744;SDS011;29359;53.048;8.732;2022-07-21T09:29:09;2.63;;;2.17;;
43744;SDS011;29359;53.048;8.732;2022-07-21T09:31:11;2.75;;;2.55;;
43744;SDS011;29359;53.048;8.732;2022-07-21T09:33:23;2.40;;;2.20;;
43744;SDS011;29359;53.048;8.732;2022-07-21T09:35:33;3.63;;;2.10;;
43744;SDS011;29359;53.048;8.732;2022-07-21T09:37:35;4.28;;;2.90;;
43744;SDS011;29359;53.048;8.732;2022-07-21T09:39:44;3.00;;;2.80;;
43744;SDS011;29359;53.048;8.732;2022-07-21T09:41:57;3.58;;;3.28;;
43744;SDS011;29359;53.048;8.732;2022-07-21T09:44:13;3.42;;;3.13;;
43744;SDS011;29359;53.048;8.732;2022-07-21T09:46:31;3.75;;;3.47;;
43744;SDS011;29359;53.048;8.732;2022-07-21T09:48:36;4.13;;;3.80;;
43744;SDS011;29359;53.048;8.732;2022-07-21T09:50:40;4.45;;;4.15;;
43744;SDS011;29359;53.048;8.732;2022-07-21T09:52:42;4.20;;;3.78;;
43744;SDS011;29359;53.048;8.732;2022-07-21T09:54:45;5.75;;;4.00;;
43744;SDS011;29359;53.048;8.732;2022-07-21T09:56:50;4.75;;;4.38;;
43744;SDS011;29359;53.048;8.732;2022-07-21T09:58:56;5.00;;;4.03;;
43744;SDS011;29359;53.048;8.732;2022-07-21T10:00:59;4.57;;;4.22;;
43744;SDS011;29359;53.048;8.732;2022-07-21T10:03:00;8.07;;;4.20;;
43744;SDS011;29359;53.048;8.732;2022-07-21T10:05:06;6.15;;;3.95;;
43744;SDS011;29359;53.048;8.732;2022-07-21T10:07:14;5.63;;;3.33;;
43744;SDS011;29359;53.048;8.732;2022-07-21T10:09:16;3.45;;;2.90;;
43744;SDS011;29359;53.048;8.732;2022-07-21T10:11:19;3.55;;;3.22;;
43744;SDS011;29359;53.048;8.732;2022-07-21T10:13:29;3.55;;;3.08;;
43744;SDS011;29359;53.048;8.732;2022-07-21T10:15:31;3.40;;;3.17;;
43744;SDS011;29359;53.048;8.732;2022-07-21T10:17:34;3.33;;;3.13;;
43744;SDS011;29359;53.048;8.732;2022-07-21T10:19:40;5.18;;;3.83;;
43744;SDS011;29359;53.048;8.732;2022-07-21T10:24:10;3.83;;;3.42;;
43744;SDS011;29359;53.048;8.732;2022-07-21T10:26:13;5.38;;;4.78;;
43744;SDS011;29359;53.048;8.732;2022-07-21T10:30:16;5.45;;;4.95;;
43744;SDS011;29359;53.048;8.732;2022-07-21T10:32:48;5.45;;;4.90;;
43744;SDS011;29359;53.048;8.732;2022-07-21T10:34:50;5.55;;;5.05;;
43744;SDS011;29359;53.048;8.732;2022-07-21T10:36:52;6.05;;;5.50;;
43744;SDS011;29359;53.048;8.732;2022-07-21T10:41:09;6.20;;;5.05;;
43744;SDS011;29359;53.048;8.732;2022-07-21T10:43:50;9.88;;;5.40;;
43744;SDS011;29359;53.048;8.732;2022-07-21T10:45:52;6.07;;;5.68;;
43744;SDS011;29359;53.048;8.732;2022-07-21T10:47:55;6.40;;;5.53;;
43744;SDS011;29359;53.048;8.732;2022-07-21T10:49:58;5.63;;;5.13;;
43744;SDS011;29359;53.048;8.732;2022-07-21T10:54:26;7.65;;;5.32;;
43744;SDS011;29359;53.048;8.732;2022-07-21T10:56:29;5.82;;;5.43;;
43744;SDS011;29359;53.048;8.732;2022-07-21T10:58:39;5.95;;;5.53;;
43744;SDS011;29359;53.048;8.732;2022-07-21T11:02:50;6.72;;;6.10;;
43744;SDS011;29359;53.048;8.732;2022-07-21T11:05:05;6.88;;;6.35;;
43744;SDS011;29359;53.048;8.732;2022-07-21T11:07:07;9.52;;;8.70;;
43744;SDS011;29359;53.048;8.732;2022-07-21T11:09:10;9.55;;;8.65;;
43744;SDS011;29359;53.048;8.732;2022-07-21T11:11:24;11.00;;;9.98;;
43744;SDS011;29359;53.048;8.732;2022-07-21T11:13:27;10.57;;;9.52;;
43744;SDS011;29359;53.048;8.732;2022-07-21T11:16:07;9.90;;;9.00;;
43744;SDS011;29359;53.048;8.732;2022-07-21T11:18:09;9.63;;;8.80;;
43744;SDS011;29359;53.048;8.732;2022-07-21T11:20:12;10.50;;;9.45;;
43744;SDS011;29359;53.048;8.732;2022-07-21T11:22:16;9.82;;;8.80;;
43744;SDS011;29359;53.048;8.732;2022-07-21T11:24:23;10.73;;;9.77;;
43744;SDS011;29359;53.048;8.732;2022-07-21T11:26:25;10.35;;;9.18;;
43744;SDS011;29359;53.048;8.732;2022-07-21T11:28:27;18.85;;;9.75;;
43744;SDS011;29359;53.048;8.732;2022-07-21T11:30:29;10.10;;;9.10;;
43744;SDS011;29359;53.048;8.732;2022-07-21T11:32:30;10.85;;;9.43;;
43744;SDS011;29359;53.048;8.732;2022-07-21T11:34:39;9.77;;;8.88;;
43744;SDS011;29359;53.048;8.732;2022-07-21T11:36:57;11.57;;;8.45;;
43744;SDS011;29359;53.048;8.732;2022-07-21T11:39:20;10.25;;;8.98;;
43744;SDS011;29359;53.048;8.732;2022-07-21T11:41:25;9.73;;;8.93;;
43744;SDS011;29359;53.048;8.732;2022-07-21T11:43:43;9.20;;;8.30;;
43744;SDS011;29359;53.048;8.732;2022-07-21T11:45:53;10.23;;;9.32;;
43744;SDS011;29359;53.048;8.732;2022-07-21T11:47:55;9.77;;;9.00;;
43744;SDS011;29359;53.048;8.732;2022-07-21T11:49:57;8.90;;;8.10;;
43744;SDS011;29359;53.048;8.732;2022-07-21T11:52:11;10.20;;;9.20;;
43744;SDS011;29359;53.048;8.732;2022-07-21T11:54:24;10.10;;;9.20;;
43744;SDS011;29359;53.048;8.732;2022-07-21T11:56:26;10.52;;;9.07;;
43744;SDS011;29359;53.048;8.732;2022-07-21T11:58:28;11.23;;;9.13;;
43744;SDS011;29359;53.048;8.732;2022-07-21T12:00:30;9.73;;;8.93;;
43744;SDS011;29359;53.048;8.732;2022-07-21T12:02:32;10.00;;;9.10;;
43744;SDS011;29359;53.048;8.732;2022-07-21T12:06:45;9.80;;;9.00;;
43744;SDS011;29359;53.048;8.732;2022-07-21T12:08:46;10.02;;;9.13;;
43744;SDS011;29359;53.048;8.732;2022-07-21T12:10:48;9.00;;;8.27;;
43744;SDS011;29359;53.048;8.732;2022-07-21T12:12:50;10.02;;;9.20;;
43744;SDS011;29359;53.048;8.732;2022-07-21T12:14:52;11.23;;;8.60;;
43744;SDS011;29359;53.048;8.732;2022-07-21T12:16:59;10.82;;;8.20;;
43744;SDS011;29359;53.048;8.732;2022-07-21T12:19:10;12.52;;;9.27;;
43744;SDS011;29359;53.048;8.732;2022-07-21T12:21:13;10.35;;;9.15;;
43744;SDS011;29359;53.048;8.732;2022-07-21T12:23:19;10.30;;;9.32;;
43744;SDS011;29359;53.048;8.732;2022-07-21T12:25:38;9.43;;;8.63;;
43744;SDS011;29359;53.048;8.732;2022-07-21T12:27:42;10.05;;;9.00;;
43744;SDS011;29359;53.048;8.732;2022-07-21T12:29:45;9.13;;;8.23;;
43744;SDS011;29359;53.048;8.732;2022-07-21T12:31:46;9.35;;;8.55;;
43744;SDS011;29359;53.048;8.732;2022-07-21T12:36:17;9.68;;;8.77;;
43744;SDS011;29359;53.048;8.732;2022-07-21T12:38:21;11.23;;;8.85;;
43744;SDS011;29359;53.048;8.732;2022-07-21T12:40:23;10.65;;;8.90;;
43744;SDS011;29359;53.048;8.732;2022-07-21T12:42:27;11.88;;;10.32;;